X  Luk Metar data     EHRD Rotterdam The Hague Airport
Temperatur
7°C Temperatur
7°C Duggpunkt
100% Fugtighed



Vind
13 KM/T
8 MPT
4 M/S
7 KNOB



240°
VSV
Nuværende forhold

For det meste spredte skyer For det meste spredte skyer
Tryk 1010.92 (hPa) - 29.85 (inHg)
Sigt 4.3 (mil) - 7 (km)
Lufthavn
Lufthavnskode EHRD

Lokation: Rotterdam The Hague Airport
Afstand: 16 (km)

Metar:
EHRD 271925Z AUTO 24007KT 7000 SCT010 BKN013 OVC016 07/07 Q1011 NOSIG

Tid: 27-01-2021 20:25 CET